Latest Coastal Weather Observations for Hillarys Point Boat Harbour

IDW60701

Issued at 1:34 am WST Wednesday 13 December 2017 (issued every 10 minutes, with the page automatically refreshed every 10 minutes)

About coastal observations | Map of coastal stations | Coastal observations for WA | Marine services | Other Formats
Station Details ID: 009265 Name: HILLARYS BOAT HARBOUR NTC AWS Lat: -31.83 Lon: 115.74 Height: 0.0 m
Data from the previous 72 hours. | See also: Recent months for locations in Western Australia
Date/Time
WST
Temp
°C
Wind Pressure Rain since
9am
mm
Weather Cloud Vis
km
Sea
Height
m
Swell
Dir  Spd
kts
Gust
kts
hPa Trend Height
m
Period
s
Dir
13/01:30am 19.5 S 6 12 1014.5 - - - - - - - - -
13/01:00am 19.9 S 7 17 1014.4 - - - - - - - - -
13/12:30am 20.3 S 6 15 1014.5 - - - - - - - - -
13/12:00am 20.2 SSW 7 19 1014.7 - - - - - - - - -
 
Date/Time
WST
Temp
°C
Wind Pressure Rain since
9am
mm
Weather Cloud Vis
km
Sea
Height
m
Swell
Dir  Spd
kts
Gust
kts
hPa Trend Height
m
Period
s
Dir
12/11:30pm 20.1 SSW 11 20 1014.6 - - - - - - - - -
12/11:00pm 20.0 SSW 12 20 1014.7 - - - - - - - - -
12/10:30pm 20.2 SSW 12 21 1014.7 - - - - - - - - -
12/10:00pm 20.5 SSW 12 21 1014.7 - - - - - - - - -
12/09:30pm 20.5 SSW 12 21 1014.3 - - - - - - - - -
12/09:00pm 20.4 SSW 13 22 1014.0 - - - - - - - - -
12/08:30pm 20.6 SSW 11 19 1013.8 - - - - - - - - -
12/08:00pm 20.6 SSW 12 20 1013.5 - - - - - - - - -
12/07:30pm 20.7 SSW 11 18 1013.1 - - - - - - - - -
12/07:00pm 20.9 SSW 10 19 1012.7 - - - - - - - - -
12/06:30pm 20.8 SSW 11 19 1012.3 - - - - - - - - -
12/06:00pm 20.9 SSW 11 18 1012.1 - - - - - - - - -
12/05:30pm 21.3 SSW 11 17 1011.8 - - - - - - - - -
12/05:00pm 21.3 SW 12 21 1011.6 - - - - - - - - -
12/04:30pm 21.4 SSW 11 20 1011.3 - - - - - - - - -
12/04:00pm 21.8 SSW 12 19 1011.5 - - - - - - - - -
12/03:30pm 21.8 SSW 12 21 1011.6 - - - - - - - - -
12/03:00pm 21.8 SW 12 19 1011.6 - - - - - - - - -
12/02:30pm 21.9 SW 11 21 1011.7 - - - - - - - - -
12/02:00pm 21.9 SSW 10 18 1011.5 - - - - - - - - -
12/01:30pm 21.8 SSW 11 18 1011.4 - - - - - - - - -
12/01:00pm 21.9 SSW 10 16 1011.4 - - - - - - - - -
12/12:30pm 21.6 SSW 11 18 1011.5 - - - - - - - - -
12/12:00pm 21.4 SW 11 19 1011.4 - - - - - - - - -
12/11:30am 21.6 SSW 10 17 1011.4 - - - - - - - - -
12/11:00am 21.3 SSW 10 19 1011.1 - - - - - - - - -
12/10:30am 21.2 SSW 10 16 1011.1 - - - - - - - - -
12/10:00am 21.1 SSW 10 17 1011.2 - - - - - - - - -
12/09:30am 20.9 SSW 10 16 1011.0 - - - - - - - - -
12/09:00am 21.2 SSW 9 16 1010.8 - - - - - - - - -
12/08:30am 21.2 SSW 9 16 1010.5 - - - - - - - - -
12/08:00am 22.5 SSW 4 7 1010.2 - - - - - - - - -
12/07:30am 22.1 SSW 2 6 1010.1 - - - - - - - - -
12/07:00am 21.7 WSW 1 2 1009.8 - - - - - - - - -
12/06:30am 21.5 CALM 0 1 1009.5 - - - - - - - - -
12/06:00am 21.4 SW 1 2 1009.1 - - - - - - - - -
12/05:30am 21.0 SSW 1 3 1008.9 - - - - - - - - -
12/05:00am 20.7 NE 2 5 1008.5 - - - - - - - - -
12/04:30am 20.7 NE 2 3 1008.4 - - - - - - - - -
12/04:00am 20.8 NE 2 3 1008.2 - - - - - - - - -
12/03:30am 21.0 E 1 3 1007.9 - - - - - - - - -
12/03:00am 21.2 E 2 4 1007.7 - - - - - - - - -
12/02:30am 21.4 SW 1 2 1007.7 - - - - - - - - -
12/02:00am 21.2 WSW 6 7 1007.9 - - - - - - - - -
12/01:30am 21.2 W 4 7 1007.9 - - - - - - - - -
12/01:00am 21.3 WSW 3 4 1008.1 - - - - - - - - -
12/12:30am 21.4 SSW 2 4 1008.0 - - - - - - - - -
12/12:00am 21.5 SSW 2 4 1008.4 - - - - - - - - -
 
Date/Time
WST
Temp
°C
Wind Pressure Rain since
9am
mm
Weather Cloud Vis
km
Sea
Height
m
Swell
Dir  Spd
kts
Gust
kts
hPa Trend Height
m
Period
s
Dir
11/11:30pm 21.5 SSW 3 6 1008.9 - - - - - - - - -
11/11:00pm 21.4 SW 7 12 1009.0 - - - - - - - - -
11/10:30pm 21.5 SW 6 10 1009.0 - - - - - - - - -
11/10:00pm 21.5 SW 5 9 1009.0 - - - - - - - - -
11/09:30pm 21.4 SW 7 12 1009.0 - - - - - - - - -
11/09:00pm 21.5 SW 6 10 1008.8 - - - - - - - - -
11/08:30pm 21.6 SW 5 9 1008.8 - - - - - - - - -
11/08:00pm 21.8 SW 8 12 1008.7 - - - - - - - - -
11/07:30pm 22.1 SW 5 7 1008.5 - - - - - - - - -
11/07:00pm 22.2 SW 6 9 1008.3 - - - - - - - - -
11/06:30pm 22.7 SSW 4 7 1007.8 - - - - - - - - -
11/06:00pm 22.8 SW 6 9 1007.4 - - - - - - - - -
11/05:30pm 23.4 SSW 4 7 1007.2 - - - - - - - - -
11/05:00pm 22.9 WSW 6 9 1007.7 - - - - - - - - -
11/04:30pm 22.9 WSW 8 11 1007.7 - - - - - - - - -
11/04:00pm 25.0 SW 6 9 1006.8 - - - - - - - - -
11/03:30pm 25.2 WSW 5 8 1006.9 - - - - - - - - -
11/03:00pm 24.9 SW 3 5 1006.6 - - - - - - - - -
11/02:30pm 24.7 SW 5 8 1006.5 - - - - - - - - -
11/02:00pm 24.8 SSW 4 7 1006.8 - - - - - - - - -
11/01:30pm 24.9 SSW 3 7 1006.9 - - - - - - - - -
11/01:00pm 24.8 SSW 3 9 1006.9 - - - - - - - - -
11/12:30pm 25.0 S 3 6 1007.1 - - - - - - - - -
11/12:00pm 25.6 SSW 5 10 1007.1 - - - - - - - - -
11/11:30am 24.9 WSW 10 13 1007.2 - - - - - - - - -
11/11:00am 27.6 WSW 5 7 1007.6 - - - - - - - - -
11/10:30am 27.6 W 3 6 1007.9 - - - - - - - - -
11/10:00am 29.1 WNW 3 6 1008.2 - - - - - - - - -
11/09:30am 32.1 NNE 5 10 1008.4 - - - - - - - - -
11/09:00am 31.6 NNE 5 9 1008.8 - - - - - - - - -
11/08:30am 30.4 ENE 5 11 1009.0 - - - - - - - - -
11/08:00am 29.6 NE 6 11 1009.3 - - - - - - - - -
11/07:30am 28.1 ENE 6 8 1009.4 - - - - - - - - -
11/07:00am 26.7 ENE 6 10 1009.4 - - - - - - - - -
11/06:30am 25.3 ENE 6 10 1009.3 - - - - - - - - -
11/06:00am 24.3 ENE 5 7 1009.1 - - - - - - - - -
11/05:30am 23.9 ENE 4 7 1008.7 - - - - - - - - -
11/05:00am 23.5 ENE 3 5 1008.8 - - - - - - - - -
11/04:30am 23.3 ENE 4 7 1008.7 - - - - - - - - -
11/04:00am 22.7 ENE 2 5 1008.8 - - - - - - - - -
11/03:30am 22.0 E 1 3 1008.7 - - - - - - - - -
11/03:00am 21.9 NE 1 2 1008.9 - - - - - - - - -
11/02:30am 22.2 SE 2 3 1008.9 - - - - - - - - -
11/02:00am 22.1 SSE 2 5 1009.3 - - - - - - - - -
11/01:30am 22.1 SSE 2 5 1009.6 - - - - - - - - -
11/01:00am 22.3 SSW 2 5 1009.6 - - - - - - - - -
11/12:30am 22.5 SSE 2 3 1009.6 - - - - - - - - -
11/12:00am 22.5 S 1 3 1009.7 - - - - - - - - -
 
Date/Time
WST
Temp
°C
Wind Pressure Rain since
9am
mm
Weather Cloud Vis
km
Sea
Height
m
Swell
Dir  Spd
kts
Gust
kts
hPa Trend Height
m
Period
s
Dir
10/11:30pm 22.7 S 2 5 1010.1 - - - - - - - - -
10/11:00pm 22.9 SW 3 4 1010.7 - - - - - - - - -
10/10:30pm 23.2 CALM 0 3 1011.1 - - - - - - - - -
10/10:00pm 23.1 S 1 5 1011.0 - - - - - - - - -
10/09:30pm 23.3 S 2 5 1011.3 - - - - - - - - -
10/09:00pm 23.4 S 2 4 1011.2 - - - - - - - - -
10/08:30pm 23.6 SSW 3 5 1011.2 - - - - - - - - -
10/08:00pm 23.9 SSW 2 7 1010.8 - - - - - - - - -
10/07:30pm 24.3 S 2 7 1010.3 - - - - - - - - -
10/07:00pm 24.8 S 2 7 1010.0 - - - - - - - - -
10/06:30pm 24.7 S 3 7 1009.8 - - - - - - - - -
10/06:00pm 25.1 S 4 8 1009.7 - - - - - - - - -
10/05:30pm 24.7 S 3 7 1009.7 - - - - - - - - -
10/05:00pm 24.4 S 2 5 1009.6 - - - - - - - - -
10/04:30pm 25.4 S 3 7 1009.6 - - - - - - - - -
10/04:00pm 25.3 S 2 8 1009.7 - - - - - - - - -
10/03:30pm 25.1 SSW 4 8 1009.8 - - - - - - - - -
10/03:00pm 24.8 SW 6 10 1010.0 - - - - - - - - -
10/02:30pm 26.1 SW 5 9 1010.3 - - - - - - - - -
10/02:00pm 25.5 SW 6 9 1010.4 - - - - - - - - -
10/01:30pm 26.0 WSW 5 9 1010.4 - - - - - - - - -
10/01:00pm 26.1 SW 6 9 1010.5 - - - - - - - - -
10/12:30pm 27.6 SSE 3 6 1010.7 - - - - - - - - -
10/12:00pm 26.4 SSE 4 6 1010.6 - - - - - - - - -
10/11:30am 26.6 WSW 3 5 1011.1 - - - - - - - - -
10/11:00am 28.7 WNW 3 6 1011.6 - - - - - - - - -
10/10:30am 30.2 NNW 5 9 1011.7 - - - - - - - - -
10/10:00am 31.3 NNE 8 15 1012.0 - - - - - - - - -
10/09:30am 30.5 NE 7 11 1012.2 - - - - - - - - -
10/09:00am 30.3 ENE 7 11 1011.7 - - - - - - - - -
10/08:30am 29.4 ENE 6 10 1011.9 - - - - - - - - -
10/08:00am 28.0 ENE 6 9 1012.2 - - - - - - - - -
10/07:30am 26.8 ENE 6 9 1011.9 - - - - - - - - -
10/07:00am 24.9 ENE 5 8 1011.6 - - - - - - - - -
10/06:30am 24.0 ENE 5 7 1011.1 - - - - - - - - -
10/06:00am 23.0 ENE 5 8 1011.1 - - - - - - - - -
10/05:30am 22.4 ENE 5 7 1011.0 - - - - - - - - -
10/05:00am 21.9 ENE 4 7 1011.0 - - - - - - - - -
10/04:30am 22.4 E 3 6 1011.0 - - - - - - - - -
10/04:00am 22.8 E 3 5 1010.9 - - - - - - - - -
10/03:30am 22.4 ENE 2 4 1010.8 - - - - - - - - -
10/03:00am 23.0 ENE 2 3 1010.6 - - - - - - - - -
10/02:30am 23.3 E 3 5 1010.4 - - - - - - - - -
10/02:00am 22.4 ESE 1 3 1010.5 - - - - - - - - -

Other Formats:

Comma delimited format used in spreadsheet applications
http://www.bom.gov.au/fwo/IDW60701/IDW60701.95605.axf

JavaScript Object Notation format (JSON) in row-major order
http://www.bom.gov.au/fwo/IDW60701/IDW60701.95605.json